KCKB

North Central West Virginia Airport

Clarksburg, West Virginia, USA
KCKB 212320Z 2200/2224 VRB04KT P6SM SCT250
Issued Valid From Valid To
Jan-21 @ 23:20 UTC
(48 minutes ago)
Jan-22 @ 00:00 UTC
(8 minutes ago)
Jan-23 @ 00:00 UTC
(in 24 hours)
Jan-22 @ 00:00 to Jan-23 @ 00:00
KCKB 212320Z 2200/2224 VRB04KT P6SM SCT250
Wind Visibility Clouds
Variable at 4 knots Greater than 6 miles
  • Scattered at 25,000' AGL
KCKB 212320Z 2200/2224 VRB04KT P6SM SCT250
Issued Jan-21 @ 23:20 UTC
(48 minutes ago)
Valid From Jan-22 @ 00:00 UTC
(8 minutes ago)
Valid To Jan-23 @ 00:00 UTC
(in 24 hours)
Jan-22 @ 00:00 - Jan-23 @ 00:00
Wind Visibility
Variable at 4 knots Greater than 6 miles
Clouds
  • Scattered at 25,000' AGL